sensor_id;sensor_type;location;lat;lon;timestamp;P1;durP1;ratioP1;P2;durP2;ratioP2
59338;SDS011;45117;50.960;5.500;2023-10-09T00:01:27;10.48;;;5.38;;
59338;SDS011;45117;50.960;5.500;2023-10-09T00:03:56;10.50;;;5.30;;
59338;SDS011;45117;50.960;5.500;2023-10-09T00:06:29;11.45;;;4.68;;
59338;SDS011;45117;50.960;5.500;2023-10-09T00:09:02;13.38;;;5.53;;
59338;SDS011;45117;50.960;5.500;2023-10-09T00:11:43;11.48;;;5.45;;
59338;SDS011;45117;50.960;5.500;2023-10-09T00:14:10;10.07;;;5.15;;
59338;SDS011;45117;50.960;5.500;2023-10-09T00:16:37;11.25;;;5.32;;
59338;SDS011;45117;50.960;5.500;2023-10-09T00:19:12;12.52;;;5.50;;
59338;SDS011;45117;50.960;5.500;2023-10-09T00:21:43;10.45;;;5.28;;
59338;SDS011;45117;50.960;5.500;2023-10-09T00:24:11;9.57;;;5.30;;
59338;SDS011;45117;50.960;5.500;2023-10-09T00:26:47;8.73;;;4.57;;
59338;SDS011;45117;50.960;5.500;2023-10-09T00:29:15;8.27;;;5.10;;
59338;SDS011;45117;50.960;5.500;2023-10-09T00:31:46;10.00;;;5.68;;
59338;SDS011;45117;50.960;5.500;2023-10-09T00:34:20;8.27;;;4.57;;
59338;SDS011;45117;50.960;5.500;2023-10-09T00:36:49;10.52;;;4.70;;
59338;SDS011;45117;50.960;5.500;2023-10-09T00:39:19;8.43;;;4.57;;
59338;SDS011;45117;50.960;5.500;2023-10-09T00:42:10;11.02;;;5.22;;
59338;SDS011;45117;50.960;5.500;2023-10-09T00:44:40;12.52;;;5.50;;
59338;SDS011;45117;50.960;5.500;2023-10-09T00:47:10;8.63;;;4.97;;
59338;SDS011;45117;50.960;5.500;2023-10-09T00:49:49;13.00;;;5.15;;
59338;SDS011;45117;50.960;5.500;2023-10-09T00:52:23;10.23;;;4.88;;
59338;SDS011;45117;50.960;5.500;2023-10-09T00:54:57;9.65;;;5.30;;
59338;SDS011;45117;50.960;5.500;2023-10-09T00:57:33;9.23;;;5.05;;
59338;SDS011;45117;50.960;5.500;2023-10-09T01:00:03;10.70;;;5.30;;
59338;SDS011;45117;50.960;5.500;2023-10-09T01:02:38;10.77;;;5.07;;
59338;SDS011;45117;50.960;5.500;2023-10-09T01:05:08;12.60;;;5.40;;
59338;SDS011;45117;50.960;5.500;2023-10-09T01:07:46;10.88;;;5.18;;
59338;SDS011;45117;50.960;5.500;2023-10-09T01:10:15;10.27;;;5.20;;
59338;SDS011;45117;50.960;5.500;2023-10-09T01:12:44;9.90;;;5.20;;
59338;SDS011;45117;50.960;5.500;2023-10-09T01:15:20;13.25;;;5.30;;
59338;SDS011;45117;50.960;5.500;2023-10-09T01:18:02;13.85;;;5.38;;
59338;SDS011;45117;50.960;5.500;2023-10-09T01:20:32;12.93;;;5.65;;
59338;SDS011;45117;50.960;5.500;2023-10-09T01:23:09;10.95;;;5.43;;
59338;SDS011;45117;50.960;5.500;2023-10-09T01:25:36;9.68;;;5.28;;
59338;SDS011;45117;50.960;5.500;2023-10-09T01:28:09;11.70;;;5.05;;
59338;SDS011;45117;50.960;5.500;2023-10-09T01:30:41;9.20;;;4.90;;
59338;SDS011;45117;50.960;5.500;2023-10-09T01:33:09;9.63;;;5.15;;
59338;SDS011;45117;50.960;5.500;2023-10-09T01:35:48;9.63;;;4.75;;
59338;SDS011;45117;50.960;5.500;2023-10-09T01:38:19;11.80;;;5.25;;
59338;SDS011;45117;50.960;5.500;2023-10-09T01:40:55;9.48;;;5.55;;
59338;SDS011;45117;50.960;5.500;2023-10-09T01:43:30;11.55;;;6.00;;
59338;SDS011;45117;50.960;5.500;2023-10-09T01:45:59;11.23;;;5.43;;
59338;SDS011;45117;50.960;5.500;2023-10-09T01:48:29;13.50;;;6.25;;
59338;SDS011;45117;50.960;5.500;2023-10-09T01:51:00;10.52;;;5.22;;
59338;SDS011;45117;50.960;5.500;2023-10-09T01:53:31;9.80;;;5.00;;
59338;SDS011;45117;50.960;5.500;2023-10-09T01:56:07;12.52;;;5.60;;
59338;SDS011;45117;50.960;5.500;2023-10-09T01:58:39;13.13;;;5.47;;
59338;SDS011;45117;50.960;5.500;2023-10-09T02:01:07;10.95;;;5.03;;
59338;SDS011;45117;50.960;5.500;2023-10-09T02:03:35;11.55;;;5.30;;
59338;SDS011;45117;50.960;5.500;2023-10-09T02:06:03;14.57;;;5.55;;
59338;SDS011;45117;50.960;5.500;2023-10-09T02:08:44;9.27;;;5.22;;
59338;SDS011;45117;50.960;5.500;2023-10-09T02:11:15;11.73;;;5.90;;
59338;SDS011;45117;50.960;5.500;2023-10-09T02:13:49;10.45;;;5.90;;
59338;SDS011;45117;50.960;5.500;2023-10-09T02:16:20;12.20;;;6.25;;
59338;SDS011;45117;50.960;5.500;2023-10-09T02:18:54;9.88;;;5.55;;
59338;SDS011;45117;50.960;5.500;2023-10-09T02:21:21;12.40;;;5.97;;
59338;SDS011;45117;50.960;5.500;2023-10-09T02:24:06;12.95;;;5.68;;
59338;SDS011;45117;50.960;5.500;2023-10-09T02:26:51;10.20;;;5.30;;
59338;SDS011;45117;50.960;5.500;2023-10-09T02:29:32;11.10;;;5.78;;
59338;SDS011;45117;50.960;5.500;2023-10-09T02:32:00;10.65;;;5.70;;
59338;SDS011;45117;50.960;5.500;2023-10-09T02:34:38;11.82;;;6.03;;
59338;SDS011;45117;50.960;5.500;2023-10-09T02:37:11;14.10;;;5.50;;
59338;SDS011;45117;50.960;5.500;2023-10-09T02:39:40;12.25;;;5.80;;
59338;SDS011;45117;50.960;5.500;2023-10-09T02:42:12;10.73;;;5.93;;
59338;SDS011;45117;50.960;5.500;2023-10-09T02:44:49;11.88;;;6.07;;
59338;SDS011;45117;50.960;5.500;2023-10-09T02:47:17;11.73;;;6.05;;
59338;SDS011;45117;50.960;5.500;2023-10-09T02:49:46;15.82;;;6.25;;
59338;SDS011;45117;50.960;5.500;2023-10-09T02:52:15;10.30;;;5.78;;
59338;SDS011;45117;50.960;5.500;2023-10-09T02:54:51;13.45;;;6.22;;
59338;SDS011;45117;50.960;5.500;2023-10-09T02:57:25;13.50;;;6.00;;
59338;SDS011;45117;50.960;5.500;2023-10-09T03:00:02;9.52;;;5.15;;
59338;SDS011;45117;50.960;5.500;2023-10-09T03:02:33;11.40;;;6.00;;
59338;SDS011;45117;50.960;5.500;2023-10-09T03:05:02;9.75;;;5.47;;
59338;SDS011;45117;50.960;5.500;2023-10-09T03:07:29;13.10;;;5.53;;
59338;SDS011;45117;50.960;5.500;2023-10-09T03:09:57;14.93;;;6.57;;
59338;SDS011;45117;50.960;5.500;2023-10-09T03:12:24;12.32;;;5.68;;
59338;SDS011;45117;50.960;5.500;2023-10-09T03:14:52;10.25;;;5.88;;
59338;SDS011;45117;50.960;5.500;2023-10-09T03:17:24;14.30;;;5.97;;
59338;SDS011;45117;50.960;5.500;2023-10-09T03:19:51;10.35;;;5.65;;
59338;SDS011;45117;50.960;5.500;2023-10-09T03:22:17;10.65;;;5.22;;
59338;SDS011;45117;50.960;5.500;2023-10-09T03:24:44;12.85;;;6.40;;
59338;SDS011;45117;50.960;5.500;2023-10-09T03:27:13;13.32;;;6.07;;
59338;SDS011;45117;50.960;5.500;2023-10-09T03:29:41;12.85;;;5.93;;
59338;SDS011;45117;50.960;5.500;2023-10-09T03:32:14;14.23;;;6.80;;
59338;SDS011;45117;50.960;5.500;2023-10-09T03:34:41;11.60;;;6.10;;
59338;SDS011;45117;50.960;5.500;2023-10-09T03:37:08;14.93;;;6.32;;
59338;SDS011;45117;50.960;5.500;2023-10-09T03:39:47;13.55;;;6.30;;
59338;SDS011;45117;50.960;5.500;2023-10-09T03:42:17;12.45;;;6.35;;
59338;SDS011;45117;50.960;5.500;2023-10-09T03:44:45;12.18;;;6.03;;
59338;SDS011;45117;50.960;5.500;2023-10-09T03:47:17;11.45;;;5.78;;
59338;SDS011;45117;50.960;5.500;2023-10-09T03:49:47;13.32;;;6.07;;
59338;SDS011;45117;50.960;5.500;2023-10-09T03:52:16;13.70;;;6.82;;
59338;SDS011;45117;50.960;5.500;2023-10-09T03:54:44;13.30;;;6.35;;
59338;SDS011;45117;50.960;5.500;2023-10-09T03:57:11;14.00;;;6.03;;
59338;SDS011;45117;50.960;5.500;2023-10-09T03:59:40;14.68;;;6.25;;
59338;SDS011;45117;50.960;5.500;2023-10-09T04:02:07;13.25;;;6.38;;
59338;SDS011;45117;50.960;5.500;2023-10-09T04:04:34;12.50;;;6.13;;
59338;SDS011;45117;50.960;5.500;2023-10-09T04:07:01;15.15;;;6.75;;
59338;SDS011;45117;50.960;5.500;2023-10-09T04:09:32;12.27;;;6.05;;
59338;SDS011;45117;50.960;5.500;2023-10-09T04:12:04;12.13;;;5.63;;
59338;SDS011;45117;50.960;5.500;2023-10-09T04:14:51;15.98;;;6.68;;
59338;SDS011;45117;50.960;5.500;2023-10-09T04:17:22;12.90;;;6.53;;
59338;SDS011;45117;50.960;5.500;2023-10-09T04:19:59;11.50;;;6.05;;
59338;SDS011;45117;50.960;5.500;2023-10-09T04:23:12;10.63;;;6.20;;
59338;SDS011;45117;50.960;5.500;2023-10-09T04:25:41;12.23;;;6.40;;
59338;SDS011;45117;50.960;5.500;2023-10-09T04:28:10;10.23;;;5.95;;
59338;SDS011;45117;50.960;5.500;2023-10-09T04:30:45;16.38;;;6.72;;
59338;SDS011;45117;50.960;5.500;2023-10-09T04:36:19;13.50;;;7.00;;
59338;SDS011;45117;50.960;5.500;2023-10-09T04:38:48;9.60;;;5.68;;
59338;SDS011;45117;50.960;5.500;2023-10-09T04:41:41;12.95;;;7.13;;
59338;SDS011;45117;50.960;5.500;2023-10-09T04:44:17;12.82;;;6.75;;
59338;SDS011;45117;50.960;5.500;2023-10-09T04:46:50;14.60;;;6.95;;
59338;SDS011;45117;50.960;5.500;2023-10-09T04:49:37;13.45;;;7.22;;
59338;SDS011;45117;50.960;5.500;2023-10-09T04:52:15;14.85;;;6.93;;
59338;SDS011;45117;50.960;5.500;2023-10-09T04:54:45;16.30;;;6.88;;
59338;SDS011;45117;50.960;5.500;2023-10-09T04:57:25;13.52;;;6.68;;
59338;SDS011;45117;50.960;5.500;2023-10-09T04:59:53;14.52;;;7.10;;
59338;SDS011;45117;50.960;5.500;2023-10-09T05:02:25;14.80;;;7.15;;
59338;SDS011;45117;50.960;5.500;2023-10-09T05:05:01;12.95;;;6.93;;
59338;SDS011;45117;50.960;5.500;2023-10-09T05:07:41;12.60;;;6.38;;
59338;SDS011;45117;50.960;5.500;2023-10-09T05:10:19;11.57;;;6.68;;
59338;SDS011;45117;50.960;5.500;2023-10-09T05:12:50;16.42;;;7.60;;
59338;SDS011;45117;50.960;5.500;2023-10-09T05:15:22;13.80;;;7.13;;
59338;SDS011;45117;50.960;5.500;2023-10-09T05:17:55;13.63;;;6.88;;
59338;SDS011;45117;50.960;5.500;2023-10-09T05:20:21;14.63;;;6.45;;
59338;SDS011;45117;50.960;5.500;2023-10-09T05:23:06;14.63;;;7.03;;
59338;SDS011;45117;50.960;5.500;2023-10-09T05:25:50;17.33;;;7.60;;
59338;SDS011;45117;50.960;5.500;2023-10-09T05:28:19;15.32;;;7.40;;
59338;SDS011;45117;50.960;5.500;2023-10-09T05:30:56;17.08;;;7.22;;
59338;SDS011;45117;50.960;5.500;2023-10-09T05:33:32;16.05;;;6.95;;
59338;SDS011;45117;50.960;5.500;2023-10-09T05:36:02;14.90;;;7.18;;
59338;SDS011;45117;50.960;5.500;2023-10-09T05:38:40;13.93;;;7.03;;
59338;SDS011;45117;50.960;5.500;2023-10-09T05:41:11;15.13;;;7.68;;
59338;SDS011;45117;50.960;5.500;2023-10-09T05:43:56;16.85;;;7.15;;
59338;SDS011;45117;50.960;5.500;2023-10-09T05:46:40;16.08;;;7.75;;
59338;SDS011;45117;50.960;5.500;2023-10-09T05:49:28;14.80;;;7.03;;
59338;SDS011;45117;50.960;5.500;2023-10-09T05:52:11;14.45;;;6.57;;
59338;SDS011;45117;50.960;5.500;2023-10-09T05:54:51;14.52;;;7.63;;
59338;SDS011;45117;50.960;5.500;2023-10-09T05:57:45;13.27;;;6.75;;
59338;SDS011;45117;50.960;5.500;2023-10-09T06:00:29;17.60;;;7.20;;
59338;SDS011;45117;50.960;5.500;2023-10-09T06:03:15;12.07;;;7.07;;
59338;SDS011;45117;50.960;5.500;2023-10-09T06:06:11;14.60;;;7.40;;
59338;SDS011;45117;50.960;5.500;2023-10-09T06:08:43;15.15;;;7.65;;
59338;SDS011;45117;50.960;5.500;2023-10-09T06:11:35;16.75;;;7.43;;
59338;SDS011;45117;50.960;5.500;2023-10-09T06:14:06;15.50;;;8.00;;
59338;SDS011;45117;50.960;5.500;2023-10-09T06:16:38;12.77;;;7.00;;
59338;SDS011;45117;50.960;5.500;2023-10-09T06:19:08;15.27;;;7.30;;
59338;SDS011;45117;50.960;5.500;2023-10-09T06:21:56;14.93;;;6.88;;
59338;SDS011;45117;50.960;5.500;2023-10-09T06:24:44;13.15;;;7.32;;
59338;SDS011;45117;50.960;5.500;2023-10-09T06:27:20;14.90;;;8.10;;
59338;SDS011;45117;50.960;5.500;2023-10-09T06:30:11;18.42;;;7.88;;
59338;SDS011;45117;50.960;5.500;2023-10-09T06:32:49;16.42;;;8.23;;
59338;SDS011;45117;50.960;5.500;2023-10-09T06:35:16;17.63;;;6.97;;
59338;SDS011;45117;50.960;5.500;2023-10-09T06:37:48;16.65;;;7.40;;
59338;SDS011;45117;50.960;5.500;2023-10-09T06:40:34;16.63;;;7.65;;
59338;SDS011;45117;50.960;5.500;2023-10-09T06:43:19;14.25;;;6.90;;
59338;SDS011;45117;50.960;5.500;2023-10-09T06:45:53;17.08;;;7.65;;
59338;SDS011;45117;50.960;5.500;2023-10-09T06:48:23;14.55;;;7.43;;
59338;SDS011;45117;50.960;5.500;2023-10-09T06:51:10;15.75;;;7.35;;
59338;SDS011;45117;50.960;5.500;2023-10-09T06:53:42;15.95;;;7.93;;
59338;SDS011;45117;50.960;5.500;2023-10-09T06:56:31;15.90;;;7.05;;
59338;SDS011;45117;50.960;5.500;2023-10-09T06:59:12;14.80;;;7.55;;
59338;SDS011;45117;50.960;5.500;2023-10-09T07:01:47;16.55;;;8.20;;
59338;SDS011;45117;50.960;5.500;2023-10-09T07:04:36;18.25;;;8.25;;
59338;SDS011;45117;50.960;5.500;2023-10-09T07:07:12;15.57;;;8.40;;
59338;SDS011;45117;50.960;5.500;2023-10-09T07:09:47;15.00;;;7.18;;
59338;SDS011;45117;50.960;5.500;2023-10-09T07:12:27;16.02;;;8.00;;
59338;SDS011;45117;50.960;5.500;2023-10-09T07:14:58;13.35;;;6.65;;
59338;SDS011;45117;50.960;5.500;2023-10-09T07:17:49;16.98;;;8.57;;
59338;SDS011;45117;50.960;5.500;2023-10-09T07:20:17;16.80;;;7.45;;
59338;SDS011;45117;50.960;5.500;2023-10-09T07:22:58;14.73;;;6.78;;
59338;SDS011;45117;50.960;5.500;2023-10-09T07:25:41;15.13;;;7.28;;
59338;SDS011;45117;50.960;5.500;2023-10-09T07:28:20;18.20;;;8.18;;
59338;SDS011;45117;50.960;5.500;2023-10-09T07:31:07;17.52;;;8.05;;
59338;SDS011;45117;50.960;5.500;2023-10-09T07:33:49;16.65;;;8.73;;
59338;SDS011;45117;50.960;5.500;2023-10-09T07:36:33;15.82;;;7.80;;
59338;SDS011;45117;50.960;5.500;2023-10-09T07:39:04;18.88;;;8.90;;
59338;SDS011;45117;50.960;5.500;2023-10-09T07:41:40;19.35;;;8.25;;
59338;SDS011;45117;50.960;5.500;2023-10-09T07:44:20;17.98;;;8.40;;
59338;SDS011;45117;50.960;5.500;2023-10-09T07:47:01;16.60;;;7.97;;
59338;SDS011;45117;50.960;5.500;2023-10-09T07:49:59;19.33;;;9.13;;
59338;SDS011;45117;50.960;5.500;2023-10-09T07:52:40;17.90;;;8.52;;
59338;SDS011;45117;50.960;5.500;2023-10-09T07:55:43;16.58;;;7.10;;
59338;SDS011;45117;50.960;5.500;2023-10-09T07:58:28;18.85;;;7.70;;
59338;SDS011;45117;50.960;5.500;2023-10-09T08:01:13;15.32;;;8.13;;
59338;SDS011;45117;50.960;5.500;2023-10-09T08:04:06;17.45;;;7.82;;
59338;SDS011;45117;50.960;5.500;2023-10-09T08:06:36;16.98;;;7.90;;
59338;SDS011;45117;50.960;5.500;2023-10-09T08:09:07;15.00;;;7.90;;
59338;SDS011;45117;50.960;5.500;2023-10-09T08:11:53;18.02;;;8.57;;
59338;SDS011;45117;50.960;5.500;2023-10-09T08:14:38;17.42;;;8.13;;
59338;SDS011;45117;50.960;5.500;2023-10-09T08:17:15;14.90;;;7.85;;
59338;SDS011;45117;50.960;5.500;2023-10-09T08:19:42;16.13;;;8.50;;
59338;SDS011;45117;50.960;5.500;2023-10-09T08:22:23;19.92;;;8.20;;
59338;SDS011;45117;50.960;5.500;2023-10-09T08:25:20;17.05;;;8.38;;
59338;SDS011;45117;50.960;5.500;2023-10-09T08:27:56;16.05;;;8.07;;
59338;SDS011;45117;50.960;5.500;2023-10-09T08:35:36;17.45;;;8.88;;
59338;SDS011;45117;50.960;5.500;2023-10-09T08:38:12;16.40;;;7.82;;
59338;SDS011;45117;50.960;5.500;2023-10-09T08:40:40;15.93;;;9.00;;
59338;SDS011;45117;50.960;5.500;2023-10-09T08:43:15;15.38;;;7.88;;
59338;SDS011;45117;50.960;5.500;2023-10-09T08:45:54;18.80;;;8.82;;
59338;SDS011;45117;50.960;5.500;2023-10-09T08:48:26;18.20;;;8.30;;
59338;SDS011;45117;50.960;5.500;2023-10-09T08:50:57;17.48;;;8.35;;
59338;SDS011;45117;50.960;5.500;2023-10-09T08:53:45;14.93;;;8.35;;
59338;SDS011;45117;50.960;5.500;2023-10-09T08:56:17;16.48;;;8.48;;
59338;SDS011;45117;50.960;5.500;2023-10-09T08:58:51;17.75;;;7.60;;
59338;SDS011;45117;50.960;5.500;2023-10-09T09:01:22;16.38;;;8.23;;
59338;SDS011;45117;50.960;5.500;2023-10-09T09:03:51;18.48;;;9.00;;
59338;SDS011;45117;50.960;5.500;2023-10-09T09:06:35;17.15;;;8.05;;
59338;SDS011;45117;50.960;5.500;2023-10-09T09:09:09;16.58;;;8.20;;
59338;SDS011;45117;50.960;5.500;2023-10-09T09:11:42;19.50;;;8.75;;
59338;SDS011;45117;50.960;5.500;2023-10-09T09:14:14;16.13;;;8.15;;
59338;SDS011;45117;50.960;5.500;2023-10-09T09:16:50;16.65;;;8.25;;
59338;SDS011;45117;50.960;5.500;2023-10-09T09:19:17;15.98;;;7.78;;
59338;SDS011;45117;50.960;5.500;2023-10-09T09:21:49;16.63;;;8.30;;
59338;SDS011;45117;50.960;5.500;2023-10-09T09:24:19;14.77;;;6.43;;
59338;SDS011;45117;50.960;5.500;2023-10-09T09:26:56;16.80;;;7.95;;
59338;SDS011;45117;50.960;5.500;2023-10-09T09:29:38;17.80;;;8.95;;
59338;SDS011;45117;50.960;5.500;2023-10-09T09:32:06;16.77;;;8.82;;
59338;SDS011;45117;50.960;5.500;2023-10-09T09:34:44;17.05;;;9.18;;
59338;SDS011;45117;50.960;5.500;2023-10-09T09:37:18;17.23;;;8.65;;
59338;SDS011;45117;50.960;5.500;2023-10-09T09:39:49;15.15;;;6.88;;
59338;SDS011;45117;50.960;5.500;2023-10-09T09:42:20;13.13;;;7.18;;
59338;SDS011;45117;50.960;5.500;2023-10-09T09:44:52;15.00;;;7.28;;
59338;SDS011;45117;50.960;5.500;2023-10-09T09:47:20;13.35;;;7.57;;
59338;SDS011;45117;50.960;5.500;2023-10-09T09:49:53;13.10;;;7.75;;
59338;SDS011;45117;50.960;5.500;2023-10-09T09:52:26;14.80;;;7.63;;
59338;SDS011;45117;50.960;5.500;2023-10-09T09:54:55;14.10;;;7.53;;
59338;SDS011;45117;50.960;5.500;2023-10-09T09:57:23;14.98;;;7.07;;
59338;SDS011;45117;50.960;5.500;2023-10-09T09:59:55;13.82;;;7.68;;
59338;SDS011;45117;50.960;5.500;2023-10-09T10:02:35;15.30;;;7.20;;
59338;SDS011;45117;50.960;5.500;2023-10-09T10:05:09;12.90;;;6.35;;
59338;SDS011;45117;50.960;5.500;2023-10-09T10:07:42;13.27;;;6.72;;
59338;SDS011;45117;50.960;5.500;2023-10-09T10:13:56;13.50;;;6.25;;
59338;SDS011;45117;50.960;5.500;2023-10-09T10:16:31;12.18;;;5.93;;
59338;SDS011;45117;50.960;5.500;2023-10-09T10:19:01;14.20;;;6.88;;
59338;SDS011;45117;50.960;5.500;2023-10-09T10:21:47;10.52;;;5.93;;
59338;SDS011;45117;50.960;5.500;2023-10-09T10:27:22;16.67;;;6.63;;
59338;SDS011;45117;50.960;5.500;2023-10-09T10:33:02;12.95;;;6.20;;
59338;SDS011;45117;50.960;5.500;2023-10-09T10:35:37;11.90;;;6.35;;
59338;SDS011;45117;50.960;5.500;2023-10-09T10:38:24;11.13;;;5.78;;
59338;SDS011;45117;50.960;5.500;2023-10-09T10:41:10;17.20;;;6.25;;
59338;SDS011;45117;50.960;5.500;2023-10-09T10:43:40;9.50;;;5.15;;
59338;SDS011;45117;50.960;5.500;2023-10-09T10:46:21;16.85;;;8.70;;
59338;SDS011;45117;50.960;5.500;2023-10-09T10:49:03;17.42;;;6.30;;
59338;SDS011;45117;50.960;5.500;2023-10-09T10:51:40;13.40;;;6.93;;
59338;SDS011;45117;50.960;5.500;2023-10-09T10:54:19;14.15;;;5.85;;
59338;SDS011;45117;50.960;5.500;2023-10-09T10:57:16;13.80;;;6.18;;
59338;SDS011;45117;50.960;5.500;2023-10-09T10:59:45;9.27;;;5.38;;
59338;SDS011;45117;50.960;5.500;2023-10-09T11:02:17;12.30;;;5.72;;
59338;SDS011;45117;50.960;5.500;2023-10-09T11:04:53;13.70;;;5.70;;
59338;SDS011;45117;50.960;5.500;2023-10-09T11:07:39;10.48;;;5.75;;
59338;SDS011;45117;50.960;5.500;2023-10-09T11:10:07;10.57;;;5.47;;
59338;SDS011;45117;50.960;5.500;2023-10-09T11:12:44;10.85;;;6.00;;
59338;SDS011;45117;50.960;5.500;2023-10-09T11:18:53;9.82;;;5.10;;
59338;SDS011;45117;50.960;5.500;2023-10-09T11:21:43;8.80;;;4.97;;
59338;SDS011;45117;50.960;5.500;2023-10-09T11:24:47;11.13;;;5.38;;
59338;SDS011;45117;50.960;5.500;2023-10-09T11:27:29;13.70;;;5.70;;
59338;SDS011;45117;50.960;5.500;2023-10-09T11:30:07;12.70;;;5.47;;
59338;SDS011;45117;50.960;5.500;2023-10-09T11:32:37;14.00;;;5.50;;
59338;SDS011;45117;50.960;5.500;2023-10-09T11:35:11;12.40;;;6.15;;
59338;SDS011;45117;50.960;5.500;2023-10-09T11:37:42;10.70;;;5.40;;
59338;SDS011;45117;50.960;5.500;2023-10-09T11:42:59;12.05;;;5.85;;
59338;SDS011;45117;50.960;5.500;2023-10-09T11:45:30;14.35;;;6.30;;
59338;SDS011;45117;50.960;5.500;2023-10-09T11:48:17;10.35;;;5.32;;
59338;SDS011;45117;50.960;5.500;2023-10-09T11:50:47;11.57;;;5.40;;
59338;SDS011;45117;50.960;5.500;2023-10-09T11:53:19;12.05;;;6.18;;
59338;SDS011;45117;50.960;5.500;2023-10-09T11:56:02;14.95;;;6.60;;
59338;SDS011;45117;50.960;5.500;2023-10-09T11:58:30;11.60;;;5.63;;
59338;SDS011;45117;50.960;5.500;2023-10-09T12:01:09;12.35;;;5.80;;
59338;SDS011;45117;50.960;5.500;2023-10-09T12:03:47;12.25;;;5.68;;
59338;SDS011;45117;50.960;5.500;2023-10-09T12:09:38;14.73;;;6.50;;
59338;SDS011;45117;50.960;5.500;2023-10-09T12:12:12;11.85;;;5.57;;
59338;SDS011;45117;50.960;5.500;2023-10-09T12:14:39;11.75;;;5.18;;
59338;SDS011;45117;50.960;5.500;2023-10-09T12:17:11;12.23;;;5.70;;
59338;SDS011;45117;50.960;5.500;2023-10-09T12:36:56;6.97;;;4.10;;
59338;SDS011;45117;50.960;5.500;2023-10-09T12:39:27;10.45;;;5.00;;
59338;SDS011;45117;50.960;5.500;2023-10-09T12:42:00;10.63;;;5.00;;
59338;SDS011;45117;50.960;5.500;2023-10-09T12:44:31;10.68;;;5.25;;
59338;SDS011;45117;50.960;5.500;2023-10-09T12:47:04;13.93;;;6.00;;
59338;SDS011;45117;50.960;5.500;2023-10-09T12:49:31;11.55;;;5.38;;
59338;SDS011;45117;50.960;5.500;2023-10-09T12:52:00;12.18;;;5.90;;
59338;SDS011;45117;50.960;5.500;2023-10-09T12:54:40;12.27;;;5.32;;
59338;SDS011;45117;50.960;5.500;2023-10-09T12:57:07;11.77;;;5.15;;
59338;SDS011;45117;50.960;5.500;2023-10-09T12:59:38;9.45;;;4.32;;
59338;SDS011;45117;50.960;5.500;2023-10-09T13:02:10;10.68;;;5.00;;
59338;SDS011;45117;50.960;5.500;2023-10-09T13:04:38;9.65;;;5.13;;
59338;SDS011;45117;50.960;5.500;2023-10-09T13:07:08;11.52;;;5.03;;
59338;SDS011;45117;50.960;5.500;2023-10-09T13:09:35;10.23;;;5.65;;
59338;SDS011;45117;50.960;5.500;2023-10-09T13:12:07;11.10;;;5.30;;
59338;SDS011;45117;50.960;5.500;2023-10-09T13:14:36;9.60;;;5.40;;
59338;SDS011;45117;50.960;5.500;2023-10-09T13:53:42;11.07;;;5.20;;
59338;SDS011;45117;50.960;5.500;2023-10-09T13:56:23;9.63;;;5.05;;
59338;SDS011;45117;50.960;5.500;2023-10-09T13:58:55;11.85;;;5.13;;
59338;SDS011;45117;50.960;5.500;2023-10-09T14:01:25;11.52;;;5.60;;
59338;SDS011;45117;50.960;5.500;2023-10-09T14:04:02;11.82;;;5.18;;
59338;SDS011;45117;50.960;5.500;2023-10-09T14:06:43;10.30;;;4.90;;
59338;SDS011;45117;50.960;5.500;2023-10-09T14:09:20;11.45;;;5.57;;
59338;SDS011;45117;50.960;5.500;2023-10-09T14:12:02;10.55;;;5.63;;
59338;SDS011;45117;50.960;5.500;2023-10-09T14:14:56;12.95;;;6.10;;
59338;SDS011;45117;50.960;5.500;2023-10-09T14:17:25;12.05;;;5.97;;
59338;SDS011;45117;50.960;5.500;2023-10-09T14:19:55;9.63;;;4.97;;
59338;SDS011;45117;50.960;5.500;2023-10-09T14:22:43;13.82;;;6.10;;
59338;SDS011;45117;50.960;5.500;2023-10-09T14:25:20;10.25;;;5.47;;
59338;SDS011;45117;50.960;5.500;2023-10-09T14:27:52;11.88;;;5.78;;
59338;SDS011;45117;50.960;5.500;2023-10-09T14:30:20;12.52;;;5.53;;
59338;SDS011;45117;50.960;5.500;2023-10-09T14:32:55;12.73;;;5.43;;
59338;SDS011;45117;50.960;5.500;2023-10-09T14:35:22;8.63;;;4.78;;
59338;SDS011;45117;50.960;5.500;2023-10-09T14:37:52;11.82;;;6.28;;
59338;SDS011;45117;50.960;5.500;2023-10-09T14:40:22;12.23;;;6.22;;
59338;SDS011;45117;50.960;5.500;2023-10-09T14:42:55;12.90;;;5.60;;
59338;SDS011;45117;50.960;5.500;2023-10-09T14:45:23;10.15;;;5.95;;
59338;SDS011;45117;50.960;5.500;2023-10-09T14:47:51;15.13;;;6.25;;
59338;SDS011;45117;50.960;5.500;2023-10-09T14:50:19;16.75;;;6.03;;
59338;SDS011;45117;50.960;5.500;2023-10-09T14:52:48;13.18;;;5.60;;
59338;SDS011;45117;50.960;5.500;2023-10-09T14:55:16;14.90;;;6.72;;
59338;SDS011;45117;50.960;5.500;2023-10-09T15:00:58;11.00;;;5.80;;
59338;SDS011;45117;50.960;5.500;2023-10-09T15:03:40;13.40;;;6.60;;
59338;SDS011;45117;50.960;5.500;2023-10-09T15:06:07;10.07;;;5.28;;
59338;SDS011;45117;50.960;5.500;2023-10-09T15:15:00;14.98;;;7.68;;
59338;SDS011;45117;50.960;5.500;2023-10-09T15:37:00;13.88;;;6.72;;
59338;SDS011;45117;50.960;5.500;2023-10-09T15:39:32;12.98;;;5.97;;
59338;SDS011;45117;50.960;5.500;2023-10-09T15:41:59;14.43;;;7.10;;
59338;SDS011;45117;50.960;5.500;2023-10-09T15:44:29;12.68;;;6.55;;
59338;SDS011;45117;50.960;5.500;2023-10-09T15:47:01;13.23;;;6.15;;
59338;SDS011;45117;50.960;5.500;2023-10-09T15:55:54;17.48;;;6.88;;
59338;SDS011;45117;50.960;5.500;2023-10-09T16:05:29;11.88;;;6.35;;
59338;SDS011;45117;50.960;5.500;2023-10-09T16:11:24;15.05;;;6.60;;
59338;SDS011;45117;50.960;5.500;2023-10-09T16:13:51;14.70;;;7.18;;
59338;SDS011;45117;50.960;5.500;2023-10-09T16:16:25;13.70;;;6.53;;
59338;SDS011;45117;50.960;5.500;2023-10-09T16:46:09;13.40;;;7.45;;
59338;SDS011;45117;50.960;5.500;2023-10-09T16:48:39;15.65;;;7.75;;
59338;SDS011;45117;50.960;5.500;2023-10-09T16:51:06;16.27;;;6.82;;
59338;SDS011;45117;50.960;5.500;2023-10-09T16:53:43;16.30;;;7.68;;
59338;SDS011;45117;50.960;5.500;2023-10-09T16:56:13;17.80;;;7.47;;
59338;SDS011;45117;50.960;5.500;2023-10-09T16:58:49;14.77;;;7.28;;
59338;SDS011;45117;50.960;5.500;2023-10-09T17:01:24;17.55;;;8.68;;
59338;SDS011;45117;50.960;5.500;2023-10-09T17:04:02;19.13;;;8.68;;
59338;SDS011;45117;50.960;5.500;2023-10-09T17:13:05;14.85;;;8.10;;
59338;SDS011;45117;50.960;5.500;2023-10-09T17:15:33;17.42;;;8.65;;
59338;SDS011;45117;50.960;5.500;2023-10-09T17:21:20;13.32;;;7.32;;
59338;SDS011;45117;50.960;5.500;2023-10-09T17:24:09;16.48;;;8.15;;
59338;SDS011;45117;50.960;5.500;2023-10-09T17:27:24;16.38;;;7.97;;
59338;SDS011;45117;50.960;5.500;2023-10-09T17:30:06;18.42;;;8.00;;
59338;SDS011;45117;50.960;5.500;2023-10-09T17:32:34;15.77;;;8.70;;
59338;SDS011;45117;50.960;5.500;2023-10-09T17:35:05;18.88;;;9.15;;
59338;SDS011;45117;50.960;5.500;2023-10-09T17:37:47;16.13;;;8.35;;
59338;SDS011;45117;50.960;5.500;2023-10-09T17:47:09;16.70;;;9.18;;
59338;SDS011;45117;50.960;5.500;2023-10-09T17:52:24;20.27;;;9.13;;
59338;SDS011;45117;50.960;5.500;2023-10-09T18:49:12;15.43;;;8.27;;
59338;SDS011;45117;50.960;5.500;2023-10-09T18:51:51;16.33;;;8.30;;
59338;SDS011;45117;50.960;5.500;2023-10-09T18:54:21;18.17;;;8.98;;
59338;SDS011;45117;50.960;5.500;2023-10-09T18:56:50;18.42;;;9.02;;
59338;SDS011;45117;50.960;5.500;2023-10-09T18:59:17;18.88;;;8.98;;
59338;SDS011;45117;50.960;5.500;2023-10-09T19:01:56;19.75;;;10.40;;
59338;SDS011;45117;50.960;5.500;2023-10-09T19:04:26;19.40;;;8.77;;
59338;SDS011;45117;50.960;5.500;2023-10-09T19:07:02;22.70;;;9.57;;
59338;SDS011;45117;50.960;5.500;2023-10-09T19:09:48;24.38;;;10.00;;